createdAt,value
2022-09-11T00:01:40.523Z,13.30
2022-09-11T00:04:09.632Z,13.30
2022-09-11T00:06:37.861Z,13.30
2022-09-11T00:09:08.618Z,13.30
2022-09-11T00:11:41.471Z,13.30
2022-09-11T00:14:10.959Z,13.30
2022-09-11T00:16:41.345Z,13.20
2022-09-11T00:19:12.228Z,13.20
2022-09-11T00:21:40.449Z,13.30
2022-09-11T00:24:11.015Z,13.30
2022-09-11T00:26:42.573Z,13.20
2022-09-11T00:29:11.103Z,13.20
2022-09-11T00:31:39.293Z,13.30
2022-09-11T00:34:08.169Z,13.30
2022-09-11T00:36:37.686Z,13.30
2022-09-11T00:39:06.102Z,13.20
2022-09-11T00:41:37.304Z,13.20
2022-09-11T00:44:08.391Z,13.20
2022-09-11T00:46:41.745Z,13.20
2022-09-11T00:49:20.438Z,13.20
2022-09-11T00:51:54.928Z,13.20
2022-09-11T00:54:29.489Z,13.30
2022-09-11T00:57:01.434Z,13.20
2022-09-11T00:59:32.051Z,13.20
2022-09-11T01:02:00.749Z,13.20
2022-09-11T01:04:29.837Z,13.20
2022-09-11T01:06:59.393Z,13.20
2022-09-11T01:09:30.645Z,13.20
2022-09-11T01:12:06.791Z,13.20
2022-09-11T01:14:43.231Z,13.20
2022-09-11T01:17:22.078Z,13.20
2022-09-11T01:20:19.872Z,13.20
2022-09-11T01:23:07.464Z,13.30
2022-09-11T01:25:53.281Z,13.20
2022-09-11T01:28:27.156Z,13.20
2022-09-11T01:30:59.676Z,13.20
2022-09-11T01:33:31.788Z,13.20
2022-09-11T01:36:06.555Z,13.10
2022-09-11T01:38:39.298Z,13.20
2022-09-11T01:41:12.041Z,13.10
2022-09-11T01:43:47.090Z,13.20
2022-09-11T01:46:23.402Z,13.10
2022-09-11T01:48:56.265Z,13.10
2022-09-11T01:51:29.682Z,13.20
2022-09-11T01:54:00.431Z,13.10
2022-09-11T01:56:34.895Z,13.10
2022-09-11T01:59:08.417Z,13.10
2022-09-11T02:01:39.829Z,13.10
2022-09-11T02:04:11.905Z,13.10
2022-09-11T02:06:46.007Z,13.10
2022-09-11T02:09:17.826Z,13.10
2022-09-11T02:11:48.333Z,13.10
2022-09-11T02:14:25.547Z,13.10
2022-09-11T02:16:59.445Z,13.10
2022-09-11T02:19:29.314Z,13.10
2022-09-11T02:21:57.845Z,13.10
2022-09-11T02:24:27.821Z,13.10
2022-09-11T02:26:59.475Z,13.10
2022-09-11T02:29:29.093Z,13.10
2022-09-11T02:31:57.550Z,13.10
2022-09-11T02:34:29.856Z,13.10
2022-09-11T02:37:15.535Z,13.00
2022-09-11T02:40:09.267Z,13.10
2022-09-11T02:43:00.237Z,13.00
2022-09-11T02:45:43.627Z,13.00
2022-09-11T02:48:29.741Z,13.10
2022-09-11T02:51:04.681Z,13.10
2022-09-11T02:53:42.830Z,13.10
2022-09-11T02:56:14.986Z,13.10
2022-09-11T02:58:48.953Z,13.10
2022-09-11T03:01:18.584Z,13.10
2022-09-11T03:03:47.745Z,13.10
2022-09-11T03:06:19.022Z,13.10
2022-09-11T03:08:47.269Z,13.10
2022-09-11T03:11:17.874Z,13.00
2022-09-11T03:13:46.958Z,13.00
2022-09-11T03:16:15.164Z,13.00
2022-09-11T03:18:44.808Z,12.90
2022-09-11T03:21:13.204Z,12.90
2022-09-11T03:23:42.158Z,12.90
2022-09-11T03:26:10.366Z,12.90
2022-09-11T03:28:40.293Z,12.90
2022-09-11T03:31:09.561Z,12.90
2022-09-11T03:33:38.369Z,12.80
2022-09-11T03:36:08.249Z,12.90
2022-09-11T03:38:37.494Z,12.90
2022-09-11T03:41:06.097Z,12.90
2022-09-11T03:43:35.306Z,12.90
2022-09-11T03:46:03.768Z,12.90
2022-09-11T03:48:32.180Z,12.90
2022-09-11T03:51:00.529Z,12.90
2022-09-11T03:53:31.539Z,12.90
2022-09-11T03:56:00.360Z,12.90
2022-09-11T03:58:28.697Z,12.90
2022-09-11T04:00:57.339Z,12.90
2022-09-11T04:03:25.734Z,12.90
2022-09-11T04:06:01.503Z,12.90
2022-09-11T04:08:33.696Z,12.90
2022-09-11T04:11:03.960Z,12.90
2022-09-11T04:13:33.865Z,12.90
2022-09-11T04:16:03.811Z,12.90
2022-09-11T04:18:32.973Z,12.90
2022-09-11T04:21:04.177Z,12.90
2022-09-11T04:23:34.241Z,12.90
2022-09-11T04:26:02.855Z,12.90
2022-09-11T04:28:32.153Z,13.00
2022-09-11T04:31:04.649Z,13.00
2022-09-11T04:33:32.899Z,13.00
2022-09-11T04:36:06.409Z,13.00
2022-09-11T04:38:36.729Z,12.90
2022-09-11T04:41:06.441Z,13.00
2022-09-11T04:43:36.146Z,12.90
2022-09-11T04:46:04.828Z,12.90
2022-09-11T04:48:33.236Z,13.00
2022-09-11T04:51:04.254Z,12.90
2022-09-11T04:53:32.920Z,13.00
2022-09-11T04:56:07.986Z,13.00
2022-09-11T04:58:37.153Z,13.00
2022-09-11T05:01:09.340Z,13.00
2022-09-11T05:03:38.043Z,13.00
2022-09-11T05:06:07.140Z,13.10
2022-09-11T05:08:37.124Z,13.00
2022-09-11T05:11:07.229Z,13.00
2022-09-11T05:13:36.691Z,13.10
2022-09-11T05:16:05.807Z,13.10
2022-09-11T05:18:34.174Z,13.10
2022-09-11T05:21:02.812Z,13.10
2022-09-11T05:23:31.649Z,13.10
2022-09-11T05:26:00.801Z,13.10
2022-09-11T05:28:31.481Z,13.10
2022-09-11T05:31:00.541Z,13.10
2022-09-11T05:33:29.520Z,13.10
2022-09-11T05:36:05.209Z,13.20
2022-09-11T05:38:35.917Z,13.20
2022-09-11T05:41:07.303Z,13.20
2022-09-11T05:43:37.235Z,13.20
2022-09-11T05:46:07.155Z,13.20
2022-09-11T05:48:38.784Z,13.20
2022-09-11T05:51:09.743Z,13.30
2022-09-11T05:53:39.529Z,13.30
2022-09-11T05:56:09.376Z,13.40
2022-09-11T05:58:39.421Z,13.40
2022-09-11T06:01:09.932Z,13.40
2022-09-11T06:03:38.965Z,13.50
2022-09-11T06:06:09.087Z,13.50
2022-09-11T06:08:38.658Z,13.50
2022-09-11T06:11:08.729Z,13.60
2022-09-11T06:13:39.993Z,13.60
2022-09-11T06:16:14.652Z,13.60
2022-09-11T06:18:49.806Z,13.70
2022-09-11T06:21:20.612Z,13.70
2022-09-11T06:23:50.566Z,13.70
2022-09-11T06:26:21.425Z,13.80
2022-09-11T06:28:52.245Z,13.80
2022-09-11T06:31:22.289Z,13.80
2022-09-11T06:33:51.095Z,13.80
2022-09-11T06:36:21.136Z,13.90
2022-09-11T06:38:54.742Z,14.00
2022-09-11T06:41:23.349Z,14.10
2022-09-11T06:43:54.279Z,14.10
2022-09-11T06:46:24.252Z,14.10
2022-09-11T06:48:53.538Z,14.10
2022-09-11T06:51:23.093Z,14.10
2022-09-11T06:53:55.321Z,14.10
2022-09-11T06:56:23.488Z,14.20
2022-09-11T06:58:53.527Z,14.20
2022-09-11T07:01:23.667Z,14.30
2022-09-11T07:03:53.186Z,14.30
2022-09-11T07:06:22.986Z,14.30
2022-09-11T07:08:53.593Z,14.40
2022-09-11T07:11:22.494Z,14.50
2022-09-11T07:13:51.986Z,14.50
2022-09-11T07:16:20.322Z,14.60
2022-09-11T07:18:49.232Z,14.70
2022-09-11T07:21:21.002Z,14.70
2022-09-11T07:23:51.746Z,14.60
2022-09-11T07:26:20.163Z,14.70
2022-09-11T07:28:51.600Z,14.80
2022-09-11T07:31:23.342Z,14.70
2022-09-11T07:33:52.212Z,14.60
2022-09-11T07:36:23.504Z,14.70
2022-09-11T07:38:52.792Z,14.80
2022-09-11T07:41:22.693Z,14.80
2022-09-11T07:43:56.005Z,14.80
2022-09-11T07:46:26.857Z,14.80
2022-09-11T07:48:55.782Z,14.80
2022-09-11T07:51:24.264Z,14.70
2022-09-11T07:53:54.411Z,14.80
2022-09-11T07:56:24.322Z,14.80
2022-09-11T07:58:55.092Z,14.90
2022-09-11T08:01:27.972Z,14.90
2022-09-11T08:03:58.432Z,14.90
2022-09-11T08:06:28.290Z,14.90
2022-09-11T08:08:57.787Z,15.00
2022-09-11T08:11:27.922Z,15.10
2022-09-11T08:13:57.178Z,15.10
2022-09-11T08:16:28.319Z,15.10
2022-09-11T08:18:57.053Z,15.20
2022-09-11T08:21:26.271Z,15.20
2022-09-11T08:23:54.820Z,15.20
2022-09-11T08:26:25.194Z,15.20
2022-09-11T08:28:55.516Z,15.10
2022-09-11T08:31:27.419Z,15.10
2022-09-11T08:33:56.444Z,15.10
2022-09-11T08:36:25.306Z,15.10
2022-09-11T08:38:53.834Z,15.10
2022-09-11T08:41:32.672Z,15.30
2022-09-11T08:44:06.532Z,15.30
2022-09-11T08:46:39.095Z,15.20
2022-09-11T08:49:15.857Z,15.20
2022-09-11T08:51:47.214Z,15.30
2022-09-11T08:54:27.798Z,15.20
2022-09-11T08:57:11.813Z,15.30
2022-09-11T08:59:59.564Z,15.20
2022-09-11T09:02:48.036Z,15.20
2022-09-11T09:05:26.445Z,15.20
2022-09-11T09:08:07.906Z,15.30
2022-09-11T09:10:48.714Z,15.40
2022-09-11T09:13:30.139Z,15.40
2022-09-11T09:16:06.647Z,15.30
2022-09-11T09:18:39.689Z,15.20
2022-09-11T09:21:14.115Z,15.20
2022-09-11T09:23:46.081Z,15.30
2022-09-11T09:26:18.919Z,15.40
2022-09-11T09:28:50.740Z,15.40
2022-09-11T09:31:22.625Z,15.40
2022-09-11T09:33:58.110Z,15.50
2022-09-11T09:36:31.427Z,15.40
2022-09-11T09:39:00.679Z,15.40
2022-09-11T09:41:53.904Z,15.30
2022-09-11T09:44:36.909Z,15.30
2022-09-11T09:47:06.026Z,15.30
2022-09-11T09:49:37.657Z,15.20
2022-09-11T09:52:17.942Z,15.10
2022-09-11T09:54:57.279Z,15.10
2022-09-11T09:57:28.365Z,15.10
2022-09-11T10:00:03.717Z,15.10
2022-09-11T10:02:42.547Z,15.10
2022-09-11T10:05:21.625Z,15.10
2022-09-11T10:07:52.121Z,15.10
2022-09-11T10:10:27.806Z,15.20
2022-09-11T10:13:17.607Z,15.30
2022-09-11T10:15:49.871Z,15.20
2022-09-11T10:18:33.612Z,15.30
2022-09-11T10:21:16.442Z,15.30
2022-09-11T10:23:47.272Z,15.40
2022-09-11T10:26:18.367Z,15.30
2022-09-11T10:28:47.297Z,15.40
2022-09-11T10:31:17.618Z,15.30
2022-09-11T10:33:51.933Z,15.30
2022-09-11T10:36:25.997Z,15.30
2022-09-11T10:38:55.935Z,15.30
2022-09-11T10:41:26.245Z,15.20
2022-09-11T10:44:00.283Z,15.20
2022-09-11T10:46:39.670Z,15.30
2022-09-11T10:49:25.817Z,15.30
2022-09-11T10:52:05.416Z,15.40
2022-09-11T10:54:55.530Z,15.40
2022-09-11T10:57:29.297Z,15.40
2022-09-11T11:00:04.300Z,15.50
2022-09-11T11:02:35.218Z,15.60
2022-09-11T11:05:06.249Z,15.60
2022-09-11T11:08:09.585Z,15.60
2022-09-11T11:10:48.739Z,15.60
2022-09-11T11:13:41.186Z,15.60
2022-09-11T11:16:19.142Z,15.70
2022-09-11T11:19:06.772Z,15.80
2022-09-11T11:21:49.659Z,15.90
2022-09-11T11:24:29.864Z,16.00
2022-09-11T11:27:11.540Z,16.10
2022-09-11T11:30:04.967Z,16.20
2022-09-11T11:32:58.609Z,16.20
2022-09-11T11:35:32.134Z,16.10
2022-09-11T11:38:08.414Z,16.20
2022-09-11T11:40:43.653Z,16.30
2022-09-11T11:43:14.351Z,16.30
2022-09-11T11:45:46.300Z,16.40
2022-09-11T11:48:20.654Z,16.50
2022-09-11T11:50:53.072Z,16.50
2022-09-11T11:53:25.710Z,16.50
2022-09-11T11:56:06.038Z,16.70
2022-09-11T11:58:43.392Z,16.70
2022-09-11T12:01:20.265Z,16.80
2022-09-11T12:03:54.710Z,16.70
2022-09-11T12:06:23.321Z,16.70
2022-09-11T12:08:51.931Z,16.60
2022-09-11T12:11:30.630Z,16.60
2022-09-11T12:13:59.248Z,16.70
2022-09-11T12:16:31.880Z,16.70
2022-09-11T12:19:06.575Z,16.70
2022-09-11T12:21:37.662Z,16.60
2022-09-11T12:24:24.498Z,16.40
2022-09-11T12:27:26.093Z,16.50
2022-09-11T12:30:09.171Z,16.50
2022-09-11T12:32:47.445Z,16.70
2022-09-11T12:35:21.332Z,16.80
2022-09-11T12:37:55.880Z,16.70
2022-09-11T12:40:33.928Z,16.60
2022-09-11T12:43:27.682Z,16.50
2022-09-11T12:45:58.114Z,16.50
2022-09-11T12:48:36.214Z,16.60
2022-09-11T12:51:06.519Z,16.60
2022-09-11T12:53:37.586Z,16.50
2022-09-11T12:56:08.217Z,16.40
2022-09-11T12:58:40.389Z,16.40
2022-09-11T13:01:22.575Z,16.50
2022-09-11T13:03:57.455Z,16.50
2022-09-11T13:06:36.962Z,16.60
2022-09-11T13:09:06.662Z,16.60
2022-09-11T13:11:43.921Z,16.60
2022-09-11T13:14:45.543Z,16.70
2022-09-11T13:17:18.484Z,16.80
2022-09-11T13:19:46.748Z,16.70
2022-09-11T13:22:26.426Z,16.70
2022-09-11T13:25:06.841Z,16.80
2022-09-11T13:27:37.622Z,16.70
2022-09-11T13:30:08.155Z,16.80
2022-09-11T13:32:38.148Z,16.80
2022-09-11T13:35:12.802Z,16.80
2022-09-11T13:37:45.573Z,16.70
2022-09-11T13:40:21.622Z,16.80
2022-09-11T13:42:50.902Z,16.80
2022-09-11T13:45:22.617Z,16.90
2022-09-11T13:47:54.759Z,16.90
2022-09-11T13:50:24.033Z,16.80
2022-09-11T13:52:54.640Z,16.70
2022-09-11T13:55:27.147Z,16.70
2022-09-11T13:57:58.683Z,16.70
2022-09-11T14:00:42.284Z,16.70
2022-09-11T14:03:24.522Z,16.70
2022-09-11T14:05:55.109Z,16.80
2022-09-11T14:08:32.636Z,16.80
2022-09-11T14:11:11.185Z,16.80
2022-09-11T14:13:45.506Z,16.90
2022-09-11T14:16:23.849Z,16.80
2022-09-11T14:18:55.870Z,16.80
2022-09-11T14:21:27.281Z,16.80
2022-09-11T14:23:57.090Z,16.80
2022-09-11T14:26:26.061Z,16.80
2022-09-11T14:29:06.085Z,16.70
2022-09-11T14:31:37.604Z,16.80
2022-09-11T14:34:26.561Z,16.80
2022-09-11T14:36:58.630Z,16.80
2022-09-11T14:39:30.783Z,16.90
2022-09-11T14:42:01.341Z,16.90
2022-09-11T14:44:30.272Z,16.90
2022-09-11T14:46:59.344Z,16.90
2022-09-11T14:49:29.619Z,16.90
2022-09-11T14:51:59.741Z,16.80
2022-09-11T14:54:31.401Z,16.80
2022-09-11T14:56:59.814Z,16.90
2022-09-11T14:59:29.529Z,16.90
2022-09-11T15:01:58.784Z,16.90
2022-09-11T15:04:29.726Z,16.90
2022-09-11T15:06:59.883Z,16.90
2022-09-11T15:09:28.133Z,16.90
2022-09-11T15:11:56.241Z,16.80
2022-09-11T15:14:45.062Z,16.80
2022-09-11T15:17:15.909Z,16.80
2022-09-11T15:19:49.635Z,16.80
2022-09-11T15:22:18.423Z,16.80
2022-09-11T15:24:48.889Z,16.80
2022-09-11T15:27:17.379Z,16.70
2022-09-11T15:29:45.701Z,16.60
2022-09-11T15:32:14.536Z,16.50
2022-09-11T15:34:44.033Z,16.50
2022-09-11T15:37:13.527Z,16.40
2022-09-11T15:39:41.736Z,16.40
2022-09-11T15:42:10.148Z,16.40
2022-09-11T15:44:38.782Z,16.40
2022-09-11T15:47:07.343Z,16.40
2022-09-11T15:49:40.876Z,16.50
2022-09-11T15:52:09.896Z,16.40
2022-09-11T15:54:39.604Z,16.40
2022-09-11T15:57:08.255Z,16.30
2022-09-11T15:59:36.616Z,16.40
2022-09-11T16:02:04.961Z,16.30
2022-09-11T16:04:33.742Z,16.30
2022-09-11T16:07:02.116Z,16.20
2022-09-11T16:09:32.288Z,16.20
2022-09-11T16:12:02.307Z,16.20
2022-09-11T16:14:32.895Z,16.10
2022-09-11T16:17:02.429Z,16.10
2022-09-11T16:19:31.356Z,16.10
2022-09-11T16:22:01.501Z,16.20
2022-09-11T16:24:31.589Z,16.30
2022-09-11T16:27:01.852Z,16.30
2022-09-11T16:29:51.125Z,16.30
2022-09-11T16:32:28.899Z,16.30
2022-09-11T16:34:59.636Z,16.50
2022-09-11T16:37:28.264Z,16.50
2022-09-11T16:39:56.607Z,16.40
2022-09-11T16:42:26.671Z,16.40
2022-09-11T16:44:54.867Z,16.30
2022-09-11T16:47:23.679Z,16.30
2022-09-11T16:50:09.180Z,16.30
2022-09-11T16:52:37.639Z,16.20
2022-09-11T16:55:06.660Z,16.20
2022-09-11T16:57:37.281Z,16.10
2022-09-11T17:00:07.377Z,16.10
2022-09-11T17:02:35.557Z,16.10
2022-09-11T17:05:03.752Z,16.00
2022-09-11T17:07:32.387Z,16.00
2022-09-11T17:10:00.512Z,15.90
2022-09-11T17:12:28.968Z,15.80
2022-09-11T17:14:58.735Z,15.80
2022-09-11T17:17:26.847Z,15.70
2022-09-11T17:19:54.997Z,15.70
2022-09-11T17:22:23.294Z,15.60
2022-09-11T17:24:51.456Z,15.50
2022-09-11T17:27:19.545Z,15.40
2022-09-11T17:29:48.513Z,15.30
2022-09-11T17:32:29.148Z,15.30
2022-09-11T17:34:58.560Z,15.20
2022-09-11T17:37:27.830Z,15.10
2022-09-11T17:39:56.182Z,15.00
2022-09-11T17:42:25.147Z,14.90
2022-09-11T17:44:53.311Z,14.80
2022-09-11T17:47:22.895Z,14.70
2022-09-11T17:49:51.385Z,14.70
2022-09-11T17:52:20.357Z,14.70
2022-09-11T17:54:49.080Z,14.60
2022-09-11T17:57:17.702Z,14.50
2022-09-11T17:59:49.937Z,14.40
2022-09-11T18:02:23.801Z,14.40
2022-09-11T18:04:52.134Z,14.40
2022-09-11T18:07:20.622Z,14.30
2022-09-11T18:09:52.888Z,14.30
2022-09-11T18:12:25.798Z,14.20
2022-09-11T18:14:56.094Z,14.10
2022-09-11T18:17:25.898Z,14.10
2022-09-11T18:19:54.019Z,14.20
2022-09-11T18:22:23.338Z,14.10
2022-09-11T18:24:52.144Z,14.10
2022-09-11T18:27:20.340Z,14.10
2022-09-11T18:29:50.152Z,14.00
2022-09-11T18:32:19.915Z,13.90
2022-09-11T18:34:49.868Z,13.80
2022-09-11T18:37:18.277Z,13.80
2022-09-11T18:39:48.392Z,13.70
2022-09-11T18:42:18.115Z,13.60
2022-09-11T18:44:46.202Z,13.50
2022-09-11T18:47:14.637Z,13.40
2022-09-11T18:49:43.081Z,13.30
2022-09-11T18:52:14.686Z,13.20
2022-09-11T18:54:43.207Z,13.10
2022-09-11T18:57:11.444Z,13.10
2022-09-11T18:59:39.557Z,13.00
2022-09-11T19:02:08.551Z,12.90
2022-09-11T19:04:36.935Z,12.80
2022-09-11T19:07:05.864Z,12.70
2022-09-11T19:09:35.704Z,12.60
2022-09-11T19:12:05.629Z,12.60
2022-09-11T19:14:35.973Z,12.50
2022-09-11T19:17:04.387Z,12.40
2022-09-11T19:19:32.682Z,12.30
2022-09-11T19:22:00.964Z,12.30
2022-09-11T19:24:30.107Z,12.20
2022-09-11T19:27:00.370Z,12.10
2022-09-11T19:29:28.607Z,12.00
2022-09-11T19:31:56.865Z,12.00
2022-09-11T19:34:25.314Z,11.90
2022-09-11T19:36:53.435Z,11.90
2022-09-11T19:39:21.882Z,11.90
2022-09-11T19:41:50.317Z,11.90
2022-09-11T19:44:20.793Z,11.90
2022-09-11T19:46:53.555Z,11.80
2022-09-11T19:49:21.735Z,11.70
2022-09-11T19:51:53.485Z,11.60
2022-09-11T19:54:22.550Z,11.60
2022-09-11T19:56:51.128Z,11.50
2022-09-11T19:59:21.033Z,11.50
2022-09-11T20:01:49.524Z,11.50
2022-09-11T20:04:19.119Z,11.40
2022-09-11T20:09:32.045Z,11.30
2022-09-11T20:12:01.475Z,11.20
2022-09-11T20:14:31.746Z,11.20
2022-09-11T20:17:01.050Z,11.10
2022-09-11T20:19:29.554Z,11.10
2022-09-11T20:21:57.625Z,11.10
2022-09-11T20:24:25.898Z,11.00
2022-09-11T20:26:54.785Z,11.00
2022-09-11T20:29:23.221Z,11.00
2022-09-11T20:31:54.250Z,10.90
2022-09-11T20:34:27.979Z,10.90
2022-09-11T20:37:00.780Z,10.80
2022-09-11T20:39:29.418Z,10.70
2022-09-11T20:41:57.619Z,10.70
2022-09-11T20:44:26.682Z,10.60
2022-09-11T20:46:56.417Z,10.50
2022-09-11T20:49:24.609Z,10.50
2022-09-11T20:51:52.714Z,10.40
2022-09-11T20:54:21.219Z,10.40
2022-09-11T20:56:49.389Z,10.40
2022-09-11T20:59:17.600Z,10.40
2022-09-11T21:01:45.880Z,10.30
2022-09-11T21:04:15.403Z,10.30
2022-09-11T21:06:43.459Z,10.20
2022-09-11T21:09:13.107Z,10.20
2022-09-11T21:11:42.211Z,10.20
2022-09-11T21:14:11.437Z,10.10
2022-09-11T21:16:40.035Z,10.10
2022-09-11T21:19:09.064Z,10.00
2022-09-11T21:21:40.481Z,10.00
2022-09-11T21:24:11.581Z,9.90
2022-09-11T21:26:39.736Z,9.90
2022-09-11T21:29:10.183Z,9.80
2022-09-11T21:31:38.475Z,9.80
2022-09-11T21:34:07.250Z,9.70
2022-09-11T21:36:37.188Z,9.80
2022-09-11T21:39:06.742Z,9.80
2022-09-11T21:41:34.841Z,9.70
2022-09-11T21:44:03.827Z,9.70
2022-09-11T21:46:32.374Z,9.70
2022-09-11T21:49:01.726Z,9.60
2022-09-11T21:51:30.509Z,9.70
2022-09-11T21:54:01.783Z,9.70
2022-09-11T21:56:34.229Z,9.60
2022-09-11T21:59:02.734Z,9.60
2022-09-11T22:01:31.816Z,9.50
2022-09-11T22:04:01.408Z,9.50
2022-09-11T22:06:30.360Z,9.40
2022-09-11T22:08:58.979Z,9.50
2022-09-11T22:11:27.510Z,9.50
2022-09-11T22:13:57.414Z,9.40
2022-09-11T22:16:26.012Z,9.40
2022-09-11T22:18:55.748Z,9.40
2022-09-11T22:21:24.174Z,9.30
2022-09-11T22:23:52.607Z,9.30
2022-09-11T22:26:23.951Z,9.30
2022-09-11T22:28:52.665Z,9.20
2022-09-11T22:31:24.685Z,9.20
2022-09-11T22:33:53.841Z,9.20
2022-09-11T22:36:24.681Z,9.10
2022-09-11T22:38:53.683Z,9.10
2022-09-11T22:41:22.197Z,9.10
2022-09-11T22:43:50.747Z,9.00
2022-09-11T22:46:21.354Z,9.00
2022-09-11T22:48:49.857Z,9.00
2022-09-11T22:51:18.140Z,9.00
2022-09-11T22:53:47.005Z,9.00
2022-09-11T22:56:15.424Z,8.90
2022-09-11T22:58:44.028Z,8.90
2022-09-11T23:01:18.519Z,8.90
2022-09-11T23:03:51.517Z,8.90
2022-09-11T23:06:38.525Z,8.80
2022-09-11T23:09:07.209Z,8.80
2022-09-11T23:11:35.392Z,8.80
2022-09-11T23:14:03.636Z,8.90
2022-09-11T23:16:32.725Z,8.80
2022-09-11T23:19:05.222Z,8.80
2022-09-11T23:21:35.588Z,8.70
2022-09-11T23:24:04.777Z,8.70
2022-09-11T23:26:33.421Z,8.70
2022-09-11T23:29:01.930Z,8.70
2022-09-11T23:31:31.869Z,8.60
2022-09-11T23:34:03.746Z,8.60
2022-09-11T23:36:33.277Z,8.50
2022-09-11T23:39:02.125Z,8.50
2022-09-11T23:41:32.325Z,8.50
2022-09-11T23:44:02.072Z,8.50
2022-09-11T23:46:30.213Z,8.50
2022-09-11T23:48:58.718Z,8.40
2022-09-11T23:51:28.792Z,8.40
2022-09-11T23:53:56.998Z,8.50
2022-09-11T23:56:25.290Z,8.40
2022-09-11T23:58:53.734Z,8.40
